Capitol Logistics 244




KMCO
Orlando International Airport
Orlando, Florida
KMIA
Miami International Airport
Miami, Florida

Activity Log

Date Flight Route Aircraft Duration
04/03/2022 CPX244 DDANY2 DDANY CSTAL1 B738 0h 55m
04/05/2021 CPX3263 MLB ANNEY4 SF34 1h 08m
03/25/2021 CPX3263 SERAY ODDEL V267 PIONN VP025 EPENY SF34 1h 03m
11/04/2019 CPX663 MLB ANNEY4 SF34 1h 02m
10/06/2019 CPX663 MLB ANNEY4 SF34 1h 04m
08/25/2019 CPX663 MLB ANNEY4 SF34 1h 03m

Route Details

Aircraft Information
Group: Narrowbodies
Types: B738,B752
Route Data
Demand: V
Distance: 167nm
Duration: 1h 10m
Recm'd Route: MLB TRV HILEY7
Origin Wx: KMCO 270653Z 16010KT 10SM SCT190 OVC220 24/21 A3001 RMK AO2 SLP159 T02440211
Dest. Wx: KMIA 270653Z 11005KT 10SM FEW060 SCT090 26/23 A3002 RMK AO2 SLP166 T02560228 $
Notes:

Financial History
Total Freight: 63,403lbs
Average Load: 10,567lbs/flt
Fuel Used: 8,935lbs
Avg. Fuel Used: 1,489lbs/flt
Fuel Expense: $6,251
Avg. Fuel Expense: $1,042
Avg. Fuel Cost: $0.93/lbs
Total Gross Income: $115,386
Pilot Pay: $1,064
Total Expenses: $20,485
Total Revenue: $87,557
Average Revenue: $19,230.93